Time;durP1;ratioP1;P1;durP2;ratioP2;P2;SDS_P1;SDS_P2;PMS_P1;PMS_P2;Temp;Humidity;BMP_temperature;BMP_pressure;BME280_temperature;BME280_humidity;BME280_pressure;Samples;Min_cycle;Max_cycle;Signal;HPM_P1;HPM_P2
2022/09/07 00:00:20;;;;;;;2.75;1.30;;;17.20;99.90;;;;;;5048984;28;20242;-85
2022/09/07 00:02:54;;;;;;;1.73;0.77;;;17.30;99.90;;;;;;5039616;28;20197;-87
2022/09/07 00:05:25;;;;;;;2.10;0.85;;;17.40;99.90;;;;;;5050761;28;20564;-87
2022/09/07 00:07:56;;;;;;;2.05;0.85;;;17.60;99.90;;;;;;5045334;28;20300;-86
2022/09/07 00:10:27;;;;;;;2.47;0.60;;;17.60;99.90;;;;;;5038721;28;20200;-87
2022/09/07 00:12:59;;;;;;;1.52;0.50;;;17.60;99.90;;;;;;5041194;28;20228;-87
2022/09/07 00:15:31;;;;;;;1.70;0.57;;;17.60;99.90;;;;;;5053419;28;20571;-86
2022/09/07 00:18:04;;;;;;;1.85;0.50;;;17.50;99.90;;;;;;5034573;28;20216;-87
2022/09/07 00:20:35;;;;;;;2.90;0.90;;;17.50;99.90;;;;;;5033765;28;20263;-85
2022/09/07 00:23:05;;;;;;;2.80;1.20;;;17.40;99.90;;;;;;5033326;28;20193;-86
2022/09/07 00:25:39;;;;;;;4.22;1.08;;;17.40;99.90;;;;;;5033482;28;20204;-87
2022/09/07 00:28:10;;;;;;;3.97;0.90;;;17.30;99.90;;;;;;5040063;28;20219;-85
2022/09/07 00:30:44;;;;;;;2.83;1.10;;;17.20;99.90;;;;;;5034278;28;20212;-85
2022/09/07 00:33:17;;;;;;;2.25;0.60;;;17.20;99.90;;;;;;5036724;28;20186;-85
2022/09/07 00:35:47;;;;;;;3.25;0.93;;;17.30;99.90;;;;;;5046976;28;20195;-86
2022/09/07 00:38:18;;;;;;;2.60;0.82;;;17.50;99.90;;;;;;5033360;28;20690;-85
2022/09/07 00:40:49;;;;;;;3.08;0.80;;;17.60;99.90;;;;;;5048163;28;20196;-85
2022/09/07 00:43:31;;;;;;;1.58;0.68;;;17.60;99.90;;;;;;5041219;28;20284;-86
2022/09/07 00:46:02;;;;;;;2.92;0.63;;;17.60;99.90;;;;;;5035589;28;20575;-85
2022/09/07 00:48:40;;;;;;;3.90;1.10;;;17.60;99.90;;;;;;5046714;28;20315;-86
2022/09/07 00:51:13;;;;;;;2.95;0.82;;;17.50;99.90;;;;;;5038769;28;20188;-85
2022/09/07 00:53:47;;;;;;;2.08;0.60;;;17.60;99.90;;;;;;5051993;28;20302;-86
2022/09/07 00:56:18;;;;;;;3.92;1.00;;;17.80;99.90;;;;;;5035465;28;20189;-89
2022/09/07 00:58:49;;;;;;;1.83;0.90;;;18.00;99.90;;;;;;5043011;28;20208;-86
2022/09/07 01:01:20;;;;;;;3.10;0.73;;;18.20;99.90;;;;;;5023380;28;20205;-83
2022/09/07 01:03:55;;;;;;;1.52;0.77;;;18.10;99.90;;;;;;5029988;28;20286;-85
2022/09/07 01:06:28;;;;;;;3.05;0.80;;;18.10;99.90;;;;;;5049348;28;20202;-85
2022/09/07 01:09:03;;;;;;;1.48;0.75;;;18.10;99.90;;;;;;5045666;28;20678;-86
2022/09/07 01:11:35;;;;;;;3.13;1.10;;;18.10;99.90;;;;;;5044454;28;20196;-83
2022/09/07 01:14:08;;;;;;;3.75;0.90;;;18.20;99.90;;;;;;5047104;28;20193;-84
2022/09/07 01:16:51;;;;;;;4.43;1.00;;;18.10;99.90;;;;;;5052134;28;20184;-85
2022/09/07 01:20:03;;;;;;;4.75;0.90;;;18.10;99.90;;;;;;5042543;28;20268;-84
2022/09/07 01:23:01;;;;;;;2.65;1.13;;;18.10;99.90;;;;;;5031069;28;20194;-85
2022/09/07 01:25:43;;;;;;;2.20;1.05;;;18.10;99.90;;;;;;5040935;28;20280;-85
2022/09/07 01:28:22;;;;;;;2.92;0.90;;;18.20;99.90;;;;;;5046863;28;20209;-86
2022/09/07 01:30:58;;;;;;;2.90;1.20;;;18.40;99.90;;;;;;5050706;28;20289;-86
2022/09/07 01:33:50;;;;;;;3.00;1.13;;;18.50;99.90;;;;;;5040162;28;20579;-86
2022/09/07 01:36:28;;;;;;;3.58;1.08;;;18.80;99.90;;;;;;5047875;28;20294;-86
2022/09/07 01:39:03;;;;;;;2.95;1.17;;;19.00;99.90;;;;;;5035658;28;20192;-86
2022/09/07 01:41:41;;;;;;;2.33;0.95;;;19.10;99.90;;;;;;5044818;28;20660;-84
2022/09/07 01:44:20;;;;;;;3.05;0.82;;;19.30;99.90;;;;;;5042342;28;20197;-86
2022/09/07 01:46:55;;;;;;;4.88;1.40;;;19.40;99.90;;;;;;5050924;28;20708;-85
2022/09/07 01:49:31;;;;;;;4.53;1.10;;;19.50;99.90;;;;;;5050540;28;20224;-85
2022/09/07 01:52:07;;;;;;;5.00;1.08;;;19.60;99.90;;;;;;5051693;28;20655;-85
2022/09/07 01:54:43;;;;;;;5.18;1.10;;;19.70;99.90;;;;;;5033129;28;20215;-86
2022/09/07 01:57:21;;;;;;;3.20;0.93;;;19.80;99.90;;;;;;5054447;28;20198;-81
2022/09/07 01:59:59;;;;;;;2.45;0.90;;;19.80;99.90;;;;;;5050279;28;20207;-87
2022/09/07 02:02:35;;;;;;;2.30;0.90;;;19.90;99.90;;;;;;5050898;28;20200;-85
2022/09/07 02:05:10;;;;;;;3.25;1.10;;;20.10;99.90;;;;;;5038906;28;20203;-87
2022/09/07 02:07:49;;;;;;;3.70;1.40;;;20.10;99.90;;;;;;5039914;28;20228;-88
2022/09/07 02:10:23;;;;;;;2.92;1.00;;;20.00;99.90;;;;;;5036115;28;20238;-86
2022/09/07 02:12:58;;;;;;;2.28;1.00;;;19.90;99.90;;;;;;5040733;28;20201;-86
2022/09/07 02:15:39;;;;;;;5.40;1.20;;;19.90;99.90;;;;;;5045093;28;20596;-86
2022/09/07 02:18:13;;;;;;;4.50;0.90;;;19.90;99.90;;;;;;5041268;28;20200;-84
2022/09/07 02:20:50;;;;;;;4.05;1.42;;;20.00;99.90;;;;;;5051641;28;20223;-86
2022/09/07 02:23:25;;;;;;;2.20;1.13;;;20.20;99.90;;;;;;5049976;28;20202;-87
2022/09/07 02:26:00;;;;;;;4.90;1.00;;;20.20;99.90;;;;;;5037076;28;20636;-86
2022/09/07 02:28:34;;;;;;;3.65;0.88;;;20.20;99.90;;;;;;5040701;28;20214;-86
2022/09/07 02:31:07;;;;;;;2.58;1.20;;;19.70;99.90;;;;;;5035979;28;20207;-84
2022/09/07 02:33:39;;;;;;;2.30;0.70;;;19.60;99.90;;;;;;5069357;28;20201;-87
2022/09/07 02:36:11;;;;;;;1.88;0.98;;;19.50;99.90;;;;;;5046165;28;20216;-87
2022/09/07 02:38:41;;;;;;;2.33;0.90;;;19.50;99.90;;;;;;5038918;28;20229;-86
2022/09/07 02:41:31;;;;;;;2.40;0.73;;;19.70;99.90;;;;;;5036580;28;20275;-86
2022/09/07 02:44:02;;;;;;;1.63;0.50;;;19.90;99.90;;;;;;5042465;28;20186;-86
2022/09/07 02:46:52;;;;;;;2.88;0.57;;;20.00;99.90;;;;;;5031116;28;20197;-86
2022/09/07 02:49:34;;;;;;;1.25;0.50;;;20.20;99.90;;;;;;5035250;28;20228;-85
2022/09/07 02:52:13;;;;;;;2.55;0.45;;;20.40;99.90;;;;;;5056623;28;20207;-85
2022/09/07 02:54:55;;;;;;;2.13;0.50;;;20.40;99.90;;;;;;5044282;28;20557;-86
2022/09/07 02:57:36;;;;;;;1.35;0.47;;;20.50;99.90;;;;;;5049621;28;20189;-84
2022/09/07 03:00:10;;;;;;;2.50;0.40;;;20.60;99.90;;;;;;5034869;28;20203;-85
2022/09/07 03:02:52;;;;;;;1.60;0.60;;;20.60;99.90;;;;;;5019926;28;20220;-85
2022/09/07 03:05:28;;;;;;;1.75;0.40;;;20.60;99.90;;;;;;5026745;28;20215;-90
2022/09/07 03:08:07;;;;;;;1.13;0.55;;;20.80;99.90;;;;;;5025842;28;20441;-90
2022/09/07 03:10:51;;;;;;;4.45;0.90;;;20.70;99.90;;;;;;5033725;28;20203;-88
2022/09/07 03:13:29;;;;;;;2.28;0.40;;;20.70;99.90;;;;;;5040227;28;20269;-92
2022/09/07 03:16:02;;;;;;;1.85;0.30;;;20.60;99.90;;;;;;5031740;28;20195;-94
2022/09/07 03:18:37;;;;;;;2.25;0.45;;;20.60;99.90;;;;;;5031640;28;20199;-95
2022/09/07 03:21:09;;;;;;;2.35;0.50;;;20.60;99.90;;;;;;5029870;28;20694;-94
2022/09/07 03:23:43;;;;;;;1.35;0.40;;;20.70;99.90;;;;;;5032598;28;20215;-94
2022/09/07 03:26:27;;;;;;;2.05;0.85;;;20.80;99.90;;;;;;5029218;28;21057;-92
2022/09/07 03:28:58;;;;;;;1.80;0.60;;;20.80;99.90;;;;;;5029550;28;20236;-89
2022/09/07 03:31:30;;;;;;;1.27;0.43;;;20.80;99.90;;;;;;5027694;28;20222;-92
2022/09/07 03:34:05;;;;;;;0.85;0.43;;;20.80;99.90;;;;;;5033600;28;20212;-93
2022/09/07 03:36:36;;;;;;;2.22;0.60;;;20.70;99.90;;;;;;5037931;28;20331;-95
2022/09/07 03:39:12;;;;;;;2.13;0.47;;;20.70;99.90;;;;;;5043754;28;20211;-93
2022/09/07 03:41:42;;;;;;;1.52;0.50;;;20.60;99.90;;;;;;5030463;28;20204;-93
2022/09/07 03:44:16;;;;;;;3.65;0.40;;;20.60;99.90;;;;;;5030882;28;20372;-90
2022/09/07 03:46:47;;;;;;;2.60;0.32;;;20.60;99.90;;;;;;5029790;28;20205;-91
2022/09/07 03:49:20;;;;;;;2.67;0.50;;;20.60;99.90;;;;;;5028917;28;20259;-90
2022/09/07 03:51:55;;;;;;;1.67;0.40;;;20.70;99.90;;;;;;5033616;28;20189;-90
2022/09/07 03:54:29;;;;;;;3.05;0.40;;;20.70;99.90;;;;;;5042626;28;20288;-92
2022/09/07 03:57:01;;;;;;;1.15;0.40;;;20.70;99.90;;;;;;5032195;28;20193;-91
2022/09/07 03:59:34;;;;;;;2.55;0.50;;;20.70;99.90;;;;;;5030461;28;20223;-91
2022/09/07 04:02:05;;;;;;;2.92;0.55;;;20.70;99.90;;;;;;5029744;28;20197;-91
2022/09/07 04:04:40;;;;;;;2.75;0.57;;;20.50;99.90;;;;;;5030196;28;20288;-91
2022/09/07 04:07:12;;;;;;;2.30;0.63;;;20.50;99.90;;;;;;5029750;28;20704;-92
2022/09/07 04:09:46;;;;;;;2.97;0.52;;;20.30;99.90;;;;;;5032272;28;20265;-91
2022/09/07 04:12:17;;;;;;;1.00;0.40;;;20.30;99.90;;;;;;5030994;28;20206;-89
2022/09/07 04:14:51;;;;;;;3.28;0.40;;;20.10;99.90;;;;;;5031765;28;20223;-94
2022/09/07 04:17:21;;;;;;;2.67;0.50;;;20.10;99.90;;;;;;5048026;28;20208;-93
2022/09/07 04:19:58;;;;;;;3.67;0.55;;;20.00;99.90;;;;;;5052989;28;20194;-94
2022/09/07 04:22:30;;;;;;;2.47;0.50;;;20.10;99.90;;;;;;5036149;28;20223;-93
2022/09/07 04:25:02;;;;;;;2.75;0.55;;;20.00;99.90;;;;;;5039832;28;20281;-93
2022/09/07 04:27:35;;;;;;;1.23;0.40;;;19.90;99.90;;;;;;5032788;28;20223;-94
2022/09/07 04:30:20;;;;;;;2.78;0.57;;;19.80;99.90;;;;;;5036649;28;20202;-94
2022/09/07 04:32:51;;;;;;;2.28;0.50;;;19.90;99.90;;;;;;5047164;28;20255;-93
2022/09/07 04:35:26;;;;;;;3.10;0.60;;;19.90;99.90;;;;;;5039224;28;20228;-93
2022/09/07 04:37:59;;;;;;;1.58;0.40;;;19.90;99.90;;;;;;5038532;28;20239;-94
2022/09/07 04:40:32;;;;;;;3.20;0.50;;;20.00;99.90;;;;;;5032688;28;20202;-94
2022/09/07 04:43:06;;;;;;;2.15;0.47;;;20.00;99.90;;;;;;5033144;28;20211;-89
2022/09/07 04:45:39;;;;;;;0.95;0.40;;;19.90;99.90;;;;;;5042715;28;20200;-90
2022/09/07 04:48:13;;;;;;;1.20;0.40;;;19.90;99.90;;;;;;5034543;28;20243;-91
2022/09/07 04:50:48;;;;;;;1.60;0.47;;;19.80;99.90;;;;;;5041305;28;20209;-93
2022/09/07 04:53:21;;;;;;;0.50;0.30;;;19.70;99.90;;;;;;5022633;28;20282;-91
2022/09/07 04:55:53;;;;;;;1.45;0.55;;;19.80;99.90;;;;;;5040131;28;20201;-92
2022/09/07 04:58:24;;;;;;;1.80;0.60;;;19.80;99.90;;;;;;5036743;28;20281;-94
2022/09/07 05:00:55;;;;;;;3.05;0.70;;;19.80;99.90;;;;;;5037756;28;20191;-93
2022/09/07 05:03:27;;;;;;;2.63;0.63;;;19.70;99.90;;;;;;5044296;28;20299;-94
2022/09/07 05:06:04;;;;;;;1.48;0.57;;;19.60;99.90;;;;;;5047304;28;20277;-92
2022/09/07 05:08:41;;;;;;;1.02;0.35;;;19.50;99.90;;;;;;5035849;28;20227;-93
2022/09/07 05:11:14;;;;;;;2.72;0.60;;;19.50;99.90;;;;;;5035846;28;20212;-93
2022/09/07 05:13:45;;;;;;;2.17;0.50;;;19.60;99.90;;;;;;5033244;28;20279;-91
2022/09/07 05:16:21;;;;;;;1.75;0.60;;;19.60;99.90;;;;;;5031833;28;20204;-90
2022/09/07 05:18:56;;;;;;;2.60;0.65;;;19.60;99.90;;;;;;5037034;28;20211;-91
2022/09/07 05:21:34;;;;;;;1.70;0.40;;;19.70;99.90;;;;;;5033043;28;20262;-90
2022/09/07 05:24:07;;;;;;;1.83;0.60;;;19.70;99.90;;;;;;5031814;28;20302;-92
2022/09/07 05:26:41;;;;;;;0.80;0.45;;;19.60;99.90;;;;;;5046041;28;20265;-91
2022/09/07 05:29:12;;;;;;;3.33;0.50;;;19.50;99.90;;;;;;5049151;28;20283;-91
2022/09/07 05:31:45;;;;;;;1.48;0.40;;;19.40;99.90;;;;;;5039600;28;20708;-91
2022/09/07 05:34:18;;;;;;;1.45;0.50;;;19.40;99.90;;;;;;5037163;28;20207;-92
2022/09/07 05:40:00;;;;;;;1.20;0.30;;;19.30;99.90;;;;;;5057305;28;20235;-93
2022/09/07 05:42:39;;;;;;;1.67;0.50;;;19.20;99.90;;;;;;5042495;28;20204;-90
2022/09/07 05:47:57;;;;;;;0.65;0.35;;;19.10;99.90;;;;;;5043854;28;20204;-89
2022/09/07 05:50:31;;;;;;;1.42;0.47;;;19.10;99.90;;;;;;5042098;28;20612;-89
2022/09/07 05:53:06;;;;;;;0.85;0.40;;;19.10;99.90;;;;;;5043054;28;20191;-91
2022/09/07 05:58:28;;;;;;;1.02;0.40;;;19.20;99.90;;;;;;5048383;28;20652;-91
2022/09/07 06:01:10;;;;;;;1.20;0.40;;;19.20;99.90;;;;;;5047435;28;20197;-94
2022/09/07 06:09:55;;;;;;;2.00;0.52;;;19.50;99.90;;;;;;5039520;28;20221;-90
2022/09/07 06:18:16;;;;;;;2.38;0.43;;;19.80;99.90;;;;;;5039360;28;20228;-91
2022/09/07 06:20:56;;;;;;;3.45;0.50;;;19.70;99.90;;;;;;5043420;28;20209;-88
2022/09/07 06:23:32;;;;;;;3.63;0.90;;;19.80;99.90;;;;;;5038688;28;20197;-87
2022/09/07 06:28:55;;;;;;;3.60;0.43;;;19.80;99.90;;;;;;5044535;28;21104;-88
2022/09/07 06:31:50;;;;;;;2.45;0.80;;;19.80;99.90;;;;;;5075808;28;20211;-88
2022/09/07 06:34:27;;;;;;;1.10;0.43;;;19.60;99.90;;;;;;5033358;28;22169;-90
2022/09/07 06:37:10;;;;;;;1.27;0.40;;;19.50;99.90;;;;;;5039039;28;20498;-89
2022/09/07 06:39:55;;;;;;;1.13;0.30;;;19.40;99.90;;;;;;5040114;28;20414;-90
2022/09/07 06:42:58;;;;;;;0.73;0.40;;;19.20;99.90;;;;;;5048468;28;20224;-90
2022/09/07 06:45:31;;;;;;;1.98;0.40;;;18.90;99.90;;;;;;5035323;28;20176;-90
2022/09/07 06:48:09;;;;;;;0.43;0.30;;;18.90;99.90;;;;;;5046246;28;20236;-90
2022/09/07 06:51:25;;;;;;;;;;;;;;;;;;;;;
2022/09/07 06:59:53;;;;;;;2.78;0.50;;;18.90;99.90;;;;;;5051468;28;20196;-95
2022/09/07 07:02:32;;;;;;;4.75;0.47;;;18.90;99.90;;;;;;5053472;28;20210;-93
2022/09/07 07:06:02;;;;;;;2.60;0.50;;;18.80;99.90;;;;;;5060726;28;20527;-95
2022/09/07 07:13:53;;;;;;;3.03;0.63;;;18.60;99.90;;;;;;5124019;22;20227;-92
2022/09/07 07:19:21;;;;;;;2.35;0.50;;;18.40;99.90;;;;;;5056782;28;20631;-95
2022/09/07 07:21:53;;;;;;;2.35;0.50;;;18.30;99.90;;;;;;5046291;28;20664;-93
2022/09/07 07:24:26;;;;;;;2.08;0.57;;;18.20;99.90;;;;;;5052599;28;20197;-94
2022/09/07 07:27:00;;;;;;;1.08;0.45;;;18.20;99.90;;;;;;5056938;28;20224;-96
2022/09/07 07:29:35;;;;;;;1.75;0.65;;;18.00;99.90;;;;;;5074641;28;20216;-91
2022/09/07 07:32:13;;;;;;;1.20;0.60;;;18.00;99.90;;;;;;5067255;28;20288;-96
2022/09/07 07:34:45;;;;;;;2.38;0.57;;;18.00;99.90;;;;;;5050981;28;20220;-96
2022/09/07 07:37:18;;;;;;;1.50;0.47;;;17.90;99.90;;;;;;5053194;28;20209;-95
2022/09/07 07:39:51;;;;;;;2.10;0.90;;;17.80;99.90;;;;;;5039744;28;20238;-93
2022/09/07 07:42:23;;;;;;;2.35;0.80;;;17.90;99.90;;;;;;5043977;28;20278;-95
2022/09/07 07:44:56;;;;;;;2.30;0.85;;;17.80;99.90;;;;;;5045328;28;20197;-94
2022/09/07 07:47:30;;;;;;;1.98;0.70;;;17.80;99.90;;;;;;5043031;28;20201;-94
2022/09/07 07:50:02;;;;;;;4.10;0.57;;;17.70;99.90;;;;;;5041311;28;20247;-94
2022/09/07 07:52:39;;;;;;;2.10;0.65;;;17.70;99.90;;;;;;5039159;28;20259;-94
2022/09/07 07:55:11;;;;;;;1.45;0.55;;;17.70;99.90;;;;;;5042663;28;20199;-95
2022/09/07 07:57:42;;;;;;;1.63;0.60;;;17.60;99.90;;;;;;5042589;28;20211;-94
2022/09/07 08:00:16;;;;;;;2.45;0.55;;;17.60;99.90;;;;;;5039873;28;20207;-94
2022/09/07 08:02:50;;;;;;;2.95;0.60;;;17.50;99.90;;;;;;5041246;28;20403;-93
2022/09/07 08:05:21;;;;;;;2.58;0.60;;;17.60;99.90;;;;;;5042917;28;20582;-94
2022/09/07 08:07:53;;;;;;;1.52;0.60;;;17.60;99.90;;;;;;5041412;28;20215;-90
2022/09/07 08:10:25;;;;;;;3.13;0.88;;;17.50;99.90;;;;;;5042466;28;20228;-92
2022/09/07 08:12:57;;;;;;;1.70;0.55;;;17.50;99.90;;;;;;5039396;28;20235;-92
2022/09/07 08:15:29;;;;;;;1.45;0.50;;;17.40;99.90;;;;;;5044690;28;20201;-92
2022/09/07 08:18:05;;;;;;;3.10;0.80;;;17.50;99.90;;;;;;5058312;28;20196;-93
2022/09/07 08:20:36;;;;;;;3.50;0.50;;;17.40;99.90;;;;;;5056903;28;20215;-92
2022/09/07 08:23:07;;;;;;;2.63;1.70;;;17.50;99.90;;;;;;5054735;28;20196;-92
2022/09/07 08:25:38;;;;;;;2.15;0.70;;;17.50;99.90;;;;;;5042145;28;20205;-92
2022/09/07 08:28:09;;;;;;;2.67;0.82;;;17.50;99.90;;;;;;5052768;28;20189;-93
2022/09/07 08:30:43;;;;;;;2.88;0.50;;;17.40;99.90;;;;;;5043892;28;20319;-93
2022/09/07 08:33:23;;;;;;;1.55;0.68;;;17.40;99.90;;;;;;5041879;28;20205;-94
2022/09/07 08:36:00;;;;;;;2.20;0.70;;;17.50;99.90;;;;;;5042277;28;20203;-93
2022/09/07 08:38:32;;;;;;;2.90;0.63;;;17.50;99.90;;;;;;5045536;28;20193;-94
2022/09/07 08:41:08;;;;;;;1.60;0.60;;;17.40;99.90;;;;;;5043277;28;20204;-95
2022/09/07 08:43:48;;;;;;;3.38;0.88;;;17.40;99.90;;;;;;5043247;28;20203;-93
2022/09/07 08:49:23;;;;;;;2.22;0.70;;;17.40;99.90;;;;;;5044626;28;20244;-93
2022/09/07 08:54:43;;;;;;;1.52;0.73;;;17.40;99.90;;;;;;5049951;28;20200;-93
2022/09/07 08:57:18;;;;;;;2.22;0.82;;;17.40;99.90;;;;;;5050863;28;20200;-94
2022/09/07 09:00:00;;;;;;;4.32;1.00;;;17.40;99.90;;;;;;5049103;28;20196;-93
2022/09/07 09:02:33;;;;;;;1.77;0.80;;;17.30;99.90;;;;;;5048610;28;20229;-92
2022/09/07 09:05:08;;;;;;;1.90;0.93;;;17.30;99.90;;;;;;5056740;28;20231;-95
2022/09/07 09:07:45;;;;;;;3.25;1.23;;;17.30;99.90;;;;;;5039865;28;20671;-93
2022/09/07 09:10:32;;;;;;;4.10;1.08;;;17.30;99.90;;;;;;5035025;28;20228;-94
2022/09/07 09:13:08;;;;;;;3.20;1.10;;;17.30;99.90;;;;;;5052215;28;20231;-94
2022/09/07 09:15:51;;;;;;;1.30;0.80;;;17.40;99.90;;;;;;5052798;28;20250;-96
2022/09/07 09:18:37;;;;;;;2.20;0.88;;;17.40;99.90;;;;;;5047885;28;20204;-94
2022/09/07 09:21:17;;;;;;;2.95;0.90;;;17.40;99.90;;;;;;5042816;28;20227;-96
2022/09/07 09:23:53;;;;;;;3.28;1.15;;;17.40;99.90;;;;;;5064089;28;20196;-94
2022/09/07 09:26:28;;;;;;;3.95;1.85;;;17.40;99.90;;;;;;5040573;28;20206;-94
2022/09/07 09:29:00;;;;;;;5.63;2.70;;;17.40;99.90;;;;;;5067948;28;20227;-95
2022/09/07 09:31:38;;;;;;;3.47;1.95;;;17.30;99.90;;;;;;5046009;28;20300;-92
2022/09/07 09:34:17;;;;;;;3.60;1.30;;;17.30;99.90;;;;;;5044479;28;20578;-91
2022/09/07 09:36:53;;;;;;;2.92;1.13;;;17.30;99.90;;;;;;5035284;28;20204;-91
2022/09/07 09:39:38;;;;;;;2.65;0.70;;;17.30;99.90;;;;;;5046783;28;20200;-94
2022/09/07 09:42:24;;;;;;;2.00;0.77;;;17.30;99.90;;;;;;5044130;28;20197;-92
2022/09/07 09:44:56;;;;;;;3.38;0.73;;;17.20;99.90;;;;;;5048548;28;20196;-95
2022/09/07 09:47:34;;;;;;;2.20;0.82;;;17.30;99.90;;;;;;5069452;28;20196;-96
2022/09/07 09:50:09;;;;;;;2.08;0.82;;;17.30;99.90;;;;;;5047224;28;20225;-94
2022/09/07 09:52:50;;;;;;;4.28;1.02;;;17.30;99.90;;;;;;5060701;28;20352;-93
2022/09/07 09:55:30;;;;;;;4.72;1.00;;;17.30;99.90;;;;;;5038233;28;20214;-92
2022/09/07 09:58:03;;;;;;;2.10;1.00;;;17.30;99.90;;;;;;5049969;28;20661;-92
2022/09/07 10:00:39;;;;;;;2.17;0.70;;;17.20;99.90;;;;;;5049277;28;20205;-91
2022/09/07 10:03:21;;;;;;;4.22;0.82;;;17.30;99.90;;;;;;5051783;28;20215;-95
2022/09/07 10:05:53;;;;;;;3.03;0.82;;;17.20;99.90;;;;;;5053252;28;20204;-94
2022/09/07 10:08:45;;;;;;;2.65;0.80;;;17.20;99.90;;;;;;5068357;28;20231;-94
2022/09/07 10:11:55;;;;;;;1.08;0.60;;;17.20;99.90;;;;;;5054358;28;20205;-94
2022/09/07 10:14:31;;;;;;;4.70;0.73;;;17.20;99.90;;;;;;5065644;28;20279;-96
2022/09/07 10:17:11;;;;;;;3.28;0.90;;;17.20;99.90;;;;;;5071479;28;20230;-94
2022/09/07 10:19:50;;;;;;;2.00;0.65;;;17.20;99.90;;;;;;5070608;28;20235;-94
2022/09/07 10:22:35;;;;;;;1.70;0.80;;;17.20;99.90;;;;;;5063404;28;20670;-95
2022/09/07 10:28:23;;;;;;;2.83;0.70;;;17.20;99.90;;;;;;5060379;28;20196;-95
2022/09/07 10:31:10;;;;;;;2.25;0.70;;;17.20;99.90;;;;;;5064029;28;20251;-93
2022/09/07 10:34:01;;;;;;;2.72;0.88;;;17.20;99.90;;;;;;5062658;28;20219;-95
2022/09/07 10:36:47;;;;;;;2.25;0.98;;;17.20;99.90;;;;;;5073337;28;20300;-95
2022/09/07 10:39:34;;;;;;;1.42;0.50;;;17.20;99.90;;;;;;5057414;28;20197;-93
2022/09/07 10:42:27;;;;;;;2.13;0.52;;;17.20;99.90;;;;;;5064723;28;20659;-94
2022/09/07 10:45:07;;;;;;;2.38;0.60;;;17.20;99.90;;;;;;5064845;28;20236;-93
2022/09/07 10:50:41;;;;;;;3.08;0.70;;;17.20;99.90;;;;;;5063819;28;20251;-94
2022/09/07 10:53:37;;;;;;;4.55;0.80;;;17.20;99.90;;;;;;5064043;28;20184;-94
2022/09/07 10:56:19;;;;;;;2.38;0.70;;;17.20;99.90;;;;;;5079986;28;20264;-93
2022/09/07 10:59:11;;;;;;;3.00;0.60;;;17.20;99.90;;;;;;5067162;28;20677;-89
2022/09/07 11:04:51;;;;;;;2.55;0.70;;;17.20;99.90;;;;;;5053158;28;20196;-95
2022/09/07 11:07:44;;;;;;;1.98;0.43;;;17.20;99.90;;;;;;5067008;28;20191;-96
2022/09/07 11:10:30;;;;;;;2.22;0.60;;;17.20;99.90;;;;;;5050821;28;20231;-93
2022/09/07 11:13:03;;;;;;;2.63;0.60;;;17.20;99.90;;;;;;5047416;28;20260;-94
2022/09/07 11:15:46;;;;;;;1.08;0.40;;;17.20;99.90;;;;;;5064823;28;20205;-95
2022/09/07 11:18:26;;;;;;;1.15;0.40;;;17.30;99.90;;;;;;5063700;28;20223;-92
2022/09/07 11:21:02;;;;;;;6.43;0.88;;;17.30;99.90;;;;;;5063911;28;20719;-94
2022/09/07 11:23:49;;;;;;;2.08;0.63;;;17.30;99.90;;;;;;5069767;28;20278;-93
2022/09/07 11:26:25;;;;;;;2.20;0.60;;;17.30;99.90;;;;;;5059521;28;20192;-94
2022/09/07 11:29:05;;;;;;;2.97;0.60;;;17.30;99.90;;;;;;5061120;28;20275;-95
2022/09/07 11:31:59;;;;;;;2.03;0.60;;;17.30;99.90;;;;;;5069071;28;20232;-93
2022/09/07 11:40:20;;;;;;;2.55;0.60;;;17.30;99.90;;;;;;5040875;28;20232;-91
2022/09/07 11:42:58;;;;;;;3.90;0.82;;;17.30;99.90;;;;;;5046734;28;20185;-95
2022/09/07 11:45:48;;;;;;;2.47;0.60;;;17.30;99.90;;;;;;5045609;28;20263;-95
2022/09/07 11:52:15;;;;;;;3.80;0.88;;;17.30;99.90;;;;;;5042319;28;20201;-96
2022/09/07 11:55:00;;;;;;;1.67;0.60;;;17.30;99.90;;;;;;5045918;28;20193;-95
2022/09/07 11:57:57;;;;;;;2.60;0.60;;;17.30;99.90;;;;;;5044272;28;21965;-95
2022/09/07 12:01:12;;;;;;;1.38;0.60;;;17.30;99.90;;;;;;5047553;28;20269;-92
2022/09/07 12:04:15;;;;;;;3.65;0.70;;;17.30;99.90;;;;;;5029744;28;20273;-94
2022/09/07 12:07:17;;;;;;;2.10;0.68;;;17.30;99.90;;;;;;5025307;28;20265;-92
2022/09/07 12:10:12;;;;;;;3.78;0.63;;;17.20;99.90;;;;;;5020447;28;20225;-93
2022/09/07 12:12:58;;;;;;;3.45;0.68;;;17.20;99.90;;;;;;5019435;28;20289;-93
2022/09/07 12:15:36;;;;;;;1.67;0.52;;;17.20;99.90;;;;;;5030831;28;20201;-90
2022/09/07 12:18:23;;;;;;;2.63;0.80;;;17.20;99.90;;;;;;5034942;28;20197;-93
2022/09/07 12:20:56;;;;;;;3.97;1.00;;;17.20;99.90;;;;;;5015801;28;20595;-92
2022/09/07 12:23:34;;;;;;;2.50;0.80;;;17.20;99.90;;;;;;5017288;28;20201;-93
2022/09/07 12:26:51;;;;;;;2.90;0.77;;;17.20;99.90;;;;;;5033687;28;20203;-93
2022/09/07 12:29:29;;;;;;;3.80;0.98;;;17.20;99.90;;;;;;4996398;28;20225;-94
2022/09/07 12:32:03;;;;;;;2.53;0.68;;;17.20;99.90;;;;;;5033043;28;20216;-89
2022/09/07 12:34:54;;;;;;;3.00;0.80;;;17.20;99.90;;;;;;5028780;28;20198;-87
2022/09/07 12:37:55;;;;;;;2.42;0.63;;;17.10;99.90;;;;;;5014826;28;20212;-90
2022/09/07 12:40:52;;;;;;;3.17;0.60;;;17.10;99.90;;;;;;5014637;28;20201;-91
2022/09/07 12:43:54;;;;;;;2.78;0.80;;;17.10;99.90;;;;;;5034620;28;20200;-91
2022/09/07 12:46:50;;;;;;;3.30;0.80;;;17.10;99.90;;;;;;5034471;28;20208;-91
2022/09/07 12:49:46;;;;;;;4.05;0.90;;;17.10;99.90;;;;;;5035301;28;20283;-92
2022/09/07 12:52:40;;;;;;;2.42;0.65;;;17.00;99.90;;;;;;5034911;28;20199;-91
2022/09/07 12:55:30;;;;;;;3.10;0.95;;;17.10;99.90;;;;;;5030772;28;20219;-91
2022/09/07 12:58:15;;;;;;;4.13;0.88;;;17.20;99.90;;;;;;5015837;28;20194;-91
2022/09/07 13:01:03;;;;;;;3.10;1.00;;;17.10;99.90;;;;;;5020688;28;20731;-93
2022/09/07 13:03:59;;;;;;;2.10;0.60;;;17.10;99.90;;;;;;5016482;28;20653;-93
2022/09/07 13:06:42;;;;;;;1.33;0.60;;;17.10;99.90;;;;;;5034314;28;20228;-91
2022/09/07 13:09:35;;;;;;;4.70;0.80;;;17.10;99.90;;;;;;5034159;28;20198;-94
2022/09/07 13:12:25;;;;;;;4.25;0.82;;;17.10;99.90;;;;;;5027661;28;20579;-93
2022/09/07 13:14:58;;;;;;;3.47;0.88;;;17.00;99.90;;;;;;5021729;28;20205;-94
2022/09/07 13:17:58;;;;;;;2.17;0.80;;;17.00;99.90;;;;;;5033524;28;20271;-94
2022/09/07 13:20:32;;;;;;;1.98;0.68;;;17.00;99.90;;;;;;5034113;28;20571;-93
2022/09/07 13:23:26;;;;;;;1.88;0.70;;;17.00;99.90;;;;;;5034349;28;20209;-92
2022/09/07 13:26:02;;;;;;;1.35;0.47;;;16.90;99.90;;;;;;5014366;28;20248;-93
2022/09/07 13:28:42;;;;;;;3.92;0.80;;;17.00;99.90;;;;;;5030214;28;20226;-91
2022/09/07 13:31:44;;;;;;;2.38;0.82;;;16.90;99.90;;;;;;5034632;28;20229;-91
2022/09/07 13:34:57;;;;;;;2.92;0.73;;;16.90;99.90;;;;;;5038678;28;20580;-91
2022/09/07 13:37:34;;;;;;;3.50;1.08;;;16.80;99.90;;;;;;5027819;28;20202;-90
2022/09/07 13:40:11;;;;;;;5.13;1.13;;;16.80;99.90;;;;;;5037307;28;20233;-92
2022/09/07 13:42:46;;;;;;;2.97;0.93;;;16.80;99.90;;;;;;5042425;28;20184;-91
2022/09/07 13:45:32;;;;;;;2.67;0.95;;;16.80;99.90;;;;;;5036805;28;20200;-89
2022/09/07 13:48:15;;;;;;;4.55;0.95;;;16.70;99.90;;;;;;5050788;28;20216;-90
2022/09/07 13:50:54;;;;;;;3.72;0.80;;;16.70;99.90;;;;;;5053294;28;20229;-89
2022/09/07 13:53:41;;;;;;;4.40;1.02;;;16.70;99.90;;;;;;5035180;28;20203;-89
2022/09/07 13:56:24;;;;;;;3.40;0.80;;;16.70;99.90;;;;;;5023846;28;20206;-91
2022/09/07 13:58:56;;;;;;;3.78;0.82;;;16.60;99.90;;;;;;5021348;28;20205;-91
2022/09/07 14:01:30;;;;;;;2.72;0.80;;;16.60;99.90;;;;;;5026307;28;20194;-90
2022/09/07 14:04:06;;;;;;;3.58;0.90;;;16.60;99.90;;;;;;5029394;28;20551;-93
2022/09/07 14:06:38;;;;;;;3.55;1.00;;;16.60;99.90;;;;;;5013706;28;20201;-91
2022/09/07 14:09:19;;;;;;;4.05;1.15;;;16.60;99.90;;;;;;5023594;28;20276;-92
2022/09/07 14:11:53;;;;;;;3.92;0.80;;;16.50;99.90;;;;;;5026309;28;20252;-89
2022/09/07 14:14:25;;;;;;;3.88;0.85;;;16.50;99.90;;;;;;5027537;28;20193;-90
2022/09/07 14:17:09;;;;;;;3.45;0.80;;;16.50;99.90;;;;;;5040631;28;20209;-90
2022/09/07 14:19:43;;;;;;;2.47;0.77;;;16.50;99.90;;;;;;5019418;28;20201;-89
2022/09/07 14:22:18;;;;;;;2.42;0.95;;;16.50;99.90;;;;;;5014505;28;20652;-90
2022/09/07 14:24:56;;;;;;;3.40;0.80;;;16.50;99.90;;;;;;5028450;28;20205;-90
2022/09/07 14:27:34;;;;;;;4.10;1.08;;;16.40;99.90;;;;;;5033795;28;20196;-92
2022/09/07 14:30:26;;;;;;;3.85;0.93;;;16.40;99.90;;;;;;5028482;28;20211;-88
2022/09/07 14:33:00;;;;;;;3.00;0.88;;;16.40;99.90;;;;;;5032671;28;20201;-90
2022/09/07 14:35:34;;;;;;;1.70;0.93;;;16.40;99.90;;;;;;5017338;28;20230;-90
2022/09/07 14:38:17;;;;;;;2.00;0.80;;;16.40;99.90;;;;;;5024259;28;20899;-91
2022/09/07 14:40:53;;;;;;;3.17;1.17;;;16.30;99.90;;;;;;5050123;28;20270;-90
2022/09/07 14:43:33;;;;;;;3.40;1.35;;;16.30;99.90;;;;;;5049957;28;20199;-90
2022/09/07 14:46:18;;;;;;;4.22;1.02;;;16.30;99.90;;;;;;5065347;28;20205;-85
2022/09/07 14:48:51;;;;;;;3.92;1.17;;;16.30;99.90;;;;;;5064377;28;20193;-88